createdAt,value
2023-02-06T00:00:51.914Z,29.30
2023-02-06T00:03:44.978Z,30.00
2023-02-06T00:06:38.040Z,28.10
2023-02-06T00:09:31.729Z,24.70
2023-02-06T00:12:25.843Z,26.80
2023-02-06T00:15:19.312Z,31.70
2023-02-06T00:18:12.581Z,32.10
2023-02-06T00:21:05.592Z,31.20
2023-02-06T00:24:02.047Z,34.50
2023-02-06T00:26:55.089Z,33.20
2023-02-06T00:29:48.147Z,33.10
2023-02-06T00:32:41.233Z,35.30
2023-02-06T00:35:34.664Z,31.50
2023-02-06T00:38:28.131Z,33.90
2023-02-06T00:41:21.141Z,37.10
2023-02-06T00:44:14.235Z,37.60
2023-02-06T00:47:07.392Z,35.70
2023-02-06T00:50:00.593Z,33.10
2023-02-06T00:52:53.685Z,37.50
2023-02-06T00:55:46.875Z,39.50
2023-02-06T00:58:39.886Z,38.20
2023-02-06T01:01:33.358Z,37.20
2023-02-06T01:04:26.391Z,40.10
2023-02-06T01:07:19.493Z,38.30
2023-02-06T01:10:12.830Z,40.80
2023-02-06T01:13:05.923Z,45.80
2023-02-06T01:15:59.085Z,47.30
2023-02-06T01:18:52.149Z,43.70
2023-02-06T01:21:45.714Z,39.30
2023-02-06T01:24:38.867Z,41.60
2023-02-06T01:27:32.254Z,40.60
2023-02-06T01:30:25.866Z,37.50
2023-02-06T01:33:18.368Z,39.50
2023-02-06T01:36:12.417Z,41.10
2023-02-06T01:39:04.915Z,39.20
2023-02-06T01:41:57.886Z,36.70
2023-02-06T01:44:50.982Z,29.40
2023-02-06T01:47:44.019Z,33.60
2023-02-06T01:50:37.339Z,34.00
2023-02-06T01:53:30.429Z,33.20
2023-02-06T01:56:23.752Z,33.40
2023-02-06T01:59:17.259Z,33.90
2023-02-06T02:02:10.435Z,35.00
2023-02-06T02:05:03.495Z,35.80
2023-02-06T02:08:02.010Z,37.20
2023-02-06T02:10:54.468Z,36.90
2023-02-06T02:13:47.561Z,42.00
2023-02-06T02:16:50.774Z,43.00
2023-02-06T02:20:40.486Z,39.40
2023-02-06T02:23:37.651Z,43.00
2023-02-06T02:26:56.067Z,42.00
2023-02-06T02:30:27.124Z,43.40
2023-02-06T02:33:38.667Z,43.40
2023-02-06T02:36:34.141Z,45.60
2023-02-06T02:39:29.223Z,46.70
2023-02-06T02:42:24.283Z,42.90
2023-02-06T02:45:20.116Z,49.50
2023-02-06T02:48:13.870Z,47.50
2023-02-06T02:51:06.532Z,42.70
2023-02-06T02:54:01.343Z,42.40
2023-02-06T02:56:54.453Z,43.20
2023-02-06T02:59:48.929Z,40.40
2023-02-06T03:02:42.311Z,41.40
2023-02-06T03:05:36.909Z,39.10
2023-02-06T03:08:33.765Z,38.90
2023-02-06T03:11:26.901Z,45.20
2023-02-06T03:14:24.363Z,43.00
2023-02-06T03:17:20.688Z,45.50
2023-02-06T03:20:13.771Z,44.70
2023-02-06T03:23:06.811Z,47.10
2023-02-06T03:26:01.471Z,48.90
2023-02-06T03:28:56.664Z,49.30
2023-02-06T03:31:50.935Z,52.50
2023-02-06T03:34:45.733Z,52.90
2023-02-06T03:37:38.202Z,56.10
2023-02-06T03:40:31.282Z,48.00
2023-02-06T03:43:24.372Z,52.40
2023-02-06T03:46:17.794Z,53.80
2023-02-06T03:49:13.338Z,55.80
2023-02-06T03:52:08.978Z,48.10
2023-02-06T03:55:05.446Z,47.90
2023-02-06T03:58:01.120Z,48.60
2023-02-06T04:00:53.790Z,48.10
2023-02-06T04:03:47.068Z,53.30
2023-02-06T04:06:40.113Z,52.40
2023-02-06T04:09:33.123Z,47.40
2023-02-06T04:12:26.391Z,50.80
2023-02-06T04:15:20.053Z,49.00
2023-02-06T04:18:11.500Z,47.90
2023-02-06T04:21:07.305Z,48.70
2023-02-06T04:23:58.971Z,48.40
2023-02-06T04:26:51.649Z,44.80
2023-02-06T04:29:43.093Z,47.20
2023-02-06T04:32:35.696Z,55.10
2023-02-06T04:35:27.342Z,52.80
2023-02-06T04:38:18.922Z,54.40
2023-02-06T04:41:11.010Z,54.30
2023-02-06T04:44:02.040Z,57.00
2023-02-06T04:46:53.586Z,53.80
2023-02-06T04:49:45.166Z,54.70
2023-02-06T04:52:36.805Z,53.00
2023-02-06T04:55:29.592Z,52.00
2023-02-06T04:58:21.215Z,52.40
2023-02-06T05:01:12.802Z,59.40
2023-02-06T05:04:04.392Z,58.10
2023-02-06T05:06:56.068Z,53.90
2023-02-06T05:09:47.850Z,55.80
2023-02-06T05:12:39.543Z,55.80
2023-02-06T05:15:31.163Z,57.80
2023-02-06T05:18:23.130Z,62.70
2023-02-06T05:21:15.340Z,58.80
2023-02-06T05:24:07.180Z,57.20
2023-02-06T05:26:58.822Z,60.40
2023-02-06T05:29:50.468Z,60.60
2023-02-06T05:32:42.095Z,64.70
2023-02-06T05:35:35.048Z,65.80
2023-02-06T05:38:26.910Z,64.60
2023-02-06T05:41:18.587Z,66.50
2023-02-06T05:44:11.018Z,65.10
2023-02-06T05:47:02.932Z,66.90
2023-02-06T05:49:54.232Z,68.10
2023-02-06T05:52:45.819Z,72.90
2023-02-06T05:55:37.660Z,68.90
2023-02-06T05:58:30.642Z,69.40
2023-02-06T06:01:22.264Z,72.50
2023-02-06T06:04:14.313Z,71.10
2023-02-06T06:07:05.891Z,67.10
2023-02-06T06:09:57.561Z,67.00
2023-02-06T06:12:49.394Z,68.80
2023-02-06T06:15:40.927Z,66.30
2023-02-06T06:18:32.592Z,66.80
2023-02-06T06:21:24.244Z,72.80
2023-02-06T06:24:15.794Z,67.90
2023-02-06T06:27:10.709Z,70.50
2023-02-06T06:30:01.826Z,73.00
2023-02-06T06:32:53.429Z,72.70
2023-02-06T06:35:45.020Z,66.20
2023-02-06T06:38:36.621Z,68.10
2023-02-06T06:41:28.495Z,69.20
2023-02-06T06:44:20.479Z,67.80
2023-02-06T06:47:11.725Z,58.90
2023-02-06T06:50:03.383Z,65.30
2023-02-06T06:52:55.041Z,73.40
2023-02-06T06:55:46.601Z,71.20
2023-02-06T06:58:38.300Z,72.10
2023-02-06T07:01:29.894Z,64.00
2023-02-06T07:04:21.648Z,58.20
2023-02-06T07:07:13.343Z,56.30
2023-02-06T07:10:05.255Z,58.30
2023-02-06T07:12:56.993Z,64.40
2023-02-06T07:15:49.648Z,74.30
2023-02-06T07:18:42.913Z,66.20
2023-02-06T07:21:34.832Z,66.20
2023-02-06T07:24:26.495Z,68.20
2023-02-06T07:27:18.222Z,69.60
2023-02-06T07:30:12.668Z,66.40
2023-02-06T07:33:03.907Z,64.60
2023-02-06T07:35:55.506Z,62.50
2023-02-06T07:38:47.100Z,63.20
2023-02-06T07:41:38.701Z,66.50
2023-02-06T07:44:31.970Z,63.30
2023-02-06T07:47:23.678Z,68.50
2023-02-06T07:50:15.510Z,64.70
2023-02-06T07:53:07.821Z,63.80
2023-02-06T07:55:59.522Z,61.90
2023-02-06T07:58:53.631Z,63.00
2023-02-06T08:01:44.708Z,63.40
2023-02-06T08:04:37.921Z,64.90
2023-02-06T08:07:29.704Z,61.80
2023-02-06T08:10:21.527Z,60.10
2023-02-06T08:13:13.233Z,63.40
2023-02-06T08:16:08.269Z,59.80
2023-02-06T08:18:59.294Z,64.00
2023-02-06T08:21:50.999Z,58.30
2023-02-06T08:24:43.049Z,57.00
2023-02-06T08:27:34.809Z,53.90
2023-02-06T08:30:26.757Z,55.80
2023-02-06T08:33:18.418Z,54.90
2023-02-06T08:36:11.412Z,50.20
2023-02-06T08:39:02.617Z,46.00
2023-02-06T08:41:54.303Z,48.00
2023-02-06T08:44:46.092Z,46.40
2023-02-06T08:47:37.661Z,46.70
2023-02-06T08:50:29.929Z,46.30
2023-02-06T08:53:21.528Z,47.40
2023-02-06T08:56:14.307Z,45.60
2023-02-06T08:59:05.337Z,45.70
2023-02-06T09:01:57.004Z,43.70
2023-02-06T09:04:48.870Z,37.10
2023-02-06T09:07:40.435Z,35.50
2023-02-06T09:10:32.302Z,34.00
2023-02-06T09:13:23.947Z,32.40
2023-02-06T09:16:15.871Z,23.50
2023-02-06T09:19:07.712Z,21.90
2023-02-06T09:21:59.496Z,17.30
2023-02-06T09:24:51.364Z,18.20
2023-02-06T09:27:46.763Z,16.50
2023-02-06T09:30:37.929Z,17.70
2023-02-06T09:33:29.655Z,19.30
2023-02-06T09:36:22.324Z,20.00
2023-02-06T09:39:13.513Z,17.60
2023-02-06T09:42:07.577Z,20.20
2023-02-06T09:45:02.552Z,19.00
2023-02-06T09:47:54.872Z,21.10
2023-02-06T09:50:49.448Z,21.70
2023-02-06T09:53:43.942Z,23.20
2023-02-06T09:56:38.044Z,23.30
2023-02-06T09:59:31.015Z,20.70
2023-02-06T10:02:34.880Z,18.30
2023-02-06T10:05:29.004Z,19.20
2023-02-06T10:08:22.851Z,20.30
2023-02-06T10:11:19.817Z,17.20
2023-02-06T10:14:14.077Z,16.20
2023-02-06T10:17:07.326Z,13.80
2023-02-06T10:20:01.744Z,12.40
2023-02-06T10:23:08.219Z,11.70
2023-02-06T10:26:06.677Z,13.80
2023-02-06T10:28:59.682Z,12.80
2023-02-06T10:32:09.044Z,12.80
2023-02-06T10:35:10.370Z,10.90
2023-02-06T10:38:09.442Z,11.90
2023-02-06T10:41:03.585Z,12.70
2023-02-06T10:43:57.067Z,12.40
2023-02-06T10:46:50.713Z,12.80
2023-02-06T10:49:44.882Z,11.50
2023-02-06T10:52:37.481Z,13.20
2023-02-06T10:55:29.624Z,12.50
2023-02-06T10:58:22.580Z,12.60
2023-02-06T11:01:25.662Z,13.40
2023-02-06T11:04:18.600Z,11.20
2023-02-06T11:07:13.682Z,16.50
2023-02-06T11:10:04.940Z,22.00
2023-02-06T11:13:00.076Z,21.90
2023-02-06T11:15:53.521Z,24.90
2023-02-06T11:18:46.299Z,29.90
2023-02-06T11:21:55.108Z,28.80
2023-02-06T11:25:01.374Z,23.80
2023-02-06T11:27:52.389Z,26.10
2023-02-06T11:30:55.674Z,22.30
2023-02-06T11:36:40.446Z,22.70
2023-02-06T11:39:33.145Z,19.00
2023-02-06T11:42:24.811Z,18.80
2023-02-06T11:45:26.623Z,21.00
2023-02-06T11:48:41.282Z,21.40
2023-02-06T11:51:48.345Z,22.20
2023-02-06T11:54:39.584Z,24.00
2023-02-06T11:57:30.920Z,22.50
2023-02-06T12:00:24.302Z,19.50
2023-02-06T12:03:30.741Z,21.60
2023-02-06T12:06:25.470Z,20.30
2023-02-06T12:09:16.648Z,22.30
2023-02-06T12:12:20.741Z,21.10
2023-02-06T12:15:39.760Z,20.10
2023-02-06T12:18:26.454Z,17.80
2023-02-06T12:21:18.122Z,15.80
2023-02-06T12:24:22.221Z,14.00
2023-02-06T12:27:18.049Z,15.60
2023-02-06T12:30:28.625Z,14.30
2023-02-06T12:33:22.216Z,12.60
2023-02-06T12:36:17.280Z,12.80
2023-02-06T12:39:14.919Z,12.50
2023-02-06T12:42:20.511Z,13.10
2023-02-06T12:45:18.885Z,13.50
2023-02-06T12:48:14.661Z,14.00
2023-02-06T12:51:09.918Z,12.10
2023-02-06T12:54:02.685Z,10.90
2023-02-06T12:56:57.179Z,8.80
2023-02-06T13:00:10.055Z,10.80
2023-02-06T13:07:06.448Z,8.60
2023-02-06T13:10:01.094Z,10.60
2023-02-06T13:12:56.954Z,8.30
2023-02-06T13:15:49.003Z,9.00
2023-02-06T13:18:52.699Z,8.90
2023-02-06T13:21:44.417Z,8.70
2023-02-06T13:24:35.467Z,7.70
2023-02-06T13:27:28.508Z,8.20
2023-02-06T13:30:49.007Z,7.20
2023-02-06T13:33:44.004Z,8.30
2023-02-06T13:36:52.529Z,7.20
2023-02-06T13:39:47.020Z,7.00
2023-02-06T13:42:41.783Z,6.40
2023-02-06T13:45:34.088Z,4.90
2023-02-06T13:48:46.431Z,5.30
2023-02-06T13:51:45.738Z,5.10
2023-02-06T13:54:51.475Z,4.90
2023-02-06T13:58:05.924Z,5.00
2023-02-06T14:00:57.266Z,4.20
2023-02-06T14:03:49.471Z,4.50
2023-02-06T14:06:47.728Z,4.40
2023-02-06T14:09:49.766Z,5.50
2023-02-06T14:12:56.700Z,5.20
2023-02-06T14:15:52.934Z,5.50
2023-02-06T14:18:46.748Z,4.70
2023-02-06T14:21:44.105Z,4.80
2023-02-06T14:24:54.881Z,4.90
2023-02-06T14:27:54.957Z,4.50
2023-02-06T14:30:48.577Z,6.10
2023-02-06T14:34:01.634Z,5.50
2023-02-06T14:37:03.714Z,5.10
2023-02-06T14:39:55.887Z,4.70
2023-02-06T14:42:47.346Z,4.30
2023-02-06T14:45:42.394Z,5.20
2023-02-06T14:48:38.586Z,4.20
2023-02-06T14:51:32.214Z,4.40
2023-02-06T14:54:35.033Z,3.50
2023-02-06T14:57:28.007Z,3.50
2023-02-06T15:00:23.112Z,4.40
2023-02-06T15:03:17.714Z,3.30
2023-02-06T15:06:10.392Z,3.00
2023-02-06T15:09:01.822Z,3.70
2023-02-06T15:11:54.151Z,3.80
2023-02-06T15:14:52.510Z,3.50
2023-02-06T15:17:43.847Z,3.60
2023-02-06T15:20:37.888Z,3.70
2023-02-06T15:23:38.557Z,3.90
2023-02-06T15:26:35.591Z,4.00
2023-02-06T15:29:27.934Z,3.40
2023-02-06T15:32:26.148Z,4.60
2023-02-06T15:35:22.571Z,4.10
2023-02-06T15:38:14.993Z,4.50
2023-02-06T15:41:07.558Z,4.30
2023-02-06T15:44:01.199Z,4.40
2023-02-06T15:46:52.525Z,4.70
2023-02-06T15:49:44.375Z,4.70
2023-02-06T15:52:38.332Z,6.00
2023-02-06T15:55:30.883Z,6.00
2023-02-06T15:58:22.952Z,5.90
2023-02-06T16:01:19.146Z,5.60
2023-02-06T16:04:15.264Z,6.20
2023-02-06T16:07:17.617Z,5.60
2023-02-06T16:10:19.747Z,6.80
2023-02-06T16:13:15.980Z,8.10
2023-02-06T16:16:20.771Z,8.60
2023-02-06T16:19:30.003Z,8.40
2023-02-06T16:22:25.454Z,7.90
2023-02-06T16:25:23.017Z,8.20
2023-02-06T16:28:22.970Z,9.20
2023-02-06T16:31:15.668Z,8.10
2023-02-06T16:34:21.485Z,8.80
2023-02-06T16:37:16.231Z,8.40
2023-02-06T16:40:08.498Z,8.50
2023-02-06T16:42:59.629Z,9.30
2023-02-06T16:45:50.815Z,8.60
2023-02-06T16:48:41.882Z,8.90
2023-02-06T16:51:33.036Z,10.10
2023-02-06T16:54:26.190Z,11.20
2023-02-06T16:57:22.911Z,10.90
2023-02-06T17:00:19.457Z,10.20
2023-02-06T17:03:11.680Z,10.10
2023-02-06T17:06:02.930Z,10.20
2023-02-06T17:08:56.859Z,10.60
2023-02-06T17:11:47.880Z,10.20
2023-02-06T17:14:39.563Z,9.30
2023-02-06T17:17:30.753Z,11.60
2023-02-06T17:20:25.910Z,10.50
2023-02-06T17:23:16.997Z,10.30
2023-02-06T17:26:10.630Z,9.00
2023-02-06T17:29:01.665Z,9.80
2023-02-06T17:31:52.783Z,9.50
2023-02-06T17:34:43.839Z,9.80
2023-02-06T17:37:36.316Z,9.20
2023-02-06T17:40:28.125Z,11.50
2023-02-06T17:43:19.254Z,10.60
2023-02-06T17:46:13.138Z,10.80
2023-02-06T17:49:04.200Z,10.40
2023-02-06T17:51:56.619Z,9.30
2023-02-06T17:54:47.679Z,10.10
2023-02-06T17:57:38.875Z,9.30
2023-02-06T18:00:29.983Z,11.50
2023-02-06T18:03:22.123Z,11.80
2023-02-06T18:06:13.305Z,11.90
2023-02-06T18:09:04.689Z,11.00
2023-02-06T18:11:56.008Z,12.20
2023-02-06T18:14:47.961Z,11.10
2023-02-06T18:17:39.092Z,9.40
2023-02-06T18:20:30.199Z,9.80
2023-02-06T18:23:21.450Z,10.60
2023-02-06T18:26:13.182Z,11.10
2023-02-06T18:29:06.942Z,11.50
2023-02-06T18:31:57.962Z,11.40
2023-02-06T18:34:48.968Z,13.50
2023-02-06T18:37:40.165Z,10.50
2023-02-06T18:40:31.339Z,13.30
2023-02-06T18:43:22.687Z,13.10
2023-02-06T18:46:13.740Z,13.30
2023-02-06T18:49:04.998Z,11.20
2023-02-06T18:51:56.057Z,13.20
2023-02-06T18:54:48.678Z,13.40
2023-02-06T18:57:40.803Z,12.90
2023-02-06T19:00:33.569Z,13.30
2023-02-06T19:03:24.925Z,15.20
2023-02-06T19:06:17.969Z,13.00
2023-02-06T19:09:09.100Z,13.10
2023-02-06T19:12:00.503Z,12.30
2023-02-06T19:14:51.982Z,14.80
2023-02-06T19:17:43.357Z,12.50
2023-02-06T19:20:34.694Z,10.40
2023-02-06T19:23:26.088Z,9.50
2023-02-06T19:26:18.222Z,9.30
2023-02-06T19:29:09.683Z,10.20
2023-02-06T19:32:00.889Z,12.30
2023-02-06T19:34:52.345Z,13.20
2023-02-06T19:37:43.795Z,14.20
2023-02-06T19:40:35.366Z,13.70
2023-02-06T19:43:26.655Z,14.20
2023-02-06T19:46:19.132Z,15.50
2023-02-06T19:49:11.213Z,18.30
2023-02-06T19:52:02.518Z,16.90
2023-02-06T19:54:53.838Z,17.00
2023-02-06T19:57:44.960Z,17.80
2023-02-06T20:00:36.405Z,17.50
2023-02-06T20:03:27.973Z,16.30
2023-02-06T20:06:19.484Z,17.40
2023-02-06T20:09:11.096Z,16.80
2023-02-06T20:12:02.247Z,14.10
2023-02-06T20:14:53.625Z,10.30
2023-02-06T20:17:44.754Z,8.20
2023-02-06T20:20:37.161Z,7.50
2023-02-06T20:23:28.997Z,8.10
2023-02-06T20:26:21.228Z,7.70
2023-02-06T20:29:17.843Z,8.20
2023-02-06T20:32:09.270Z,7.30
2023-02-06T20:35:00.567Z,6.80
2023-02-06T20:37:52.051Z,5.90
2023-02-06T20:40:43.759Z,6.10
2023-02-06T20:43:36.237Z,6.60
2023-02-06T20:46:29.818Z,6.60
2023-02-06T20:49:22.543Z,6.50
2023-02-06T20:52:13.728Z,6.60
2023-02-06T20:55:05.193Z,6.00
2023-02-06T20:57:56.653Z,5.80
2023-02-06T21:00:47.857Z,6.90
2023-02-06T21:03:39.834Z,7.20
2023-02-06T21:06:31.500Z,6.60
2023-02-06T21:09:22.746Z,5.40
2023-02-06T21:12:15.351Z,6.00
2023-02-06T21:15:07.788Z,6.30
2023-02-06T21:17:59.397Z,5.70
2023-02-06T21:20:51.135Z,5.00
2023-02-06T21:23:43.804Z,5.80
2023-02-06T21:26:35.341Z,4.60
2023-02-06T21:29:27.224Z,4.80
2023-02-06T21:32:19.248Z,5.10
2023-02-06T21:35:12.154Z,4.10
2023-02-06T21:38:03.557Z,4.10
2023-02-06T21:40:54.857Z,3.80
2023-02-06T21:43:46.717Z,4.50
2023-02-06T21:46:38.576Z,4.70
2023-02-06T21:49:30.566Z,4.40
2023-02-06T21:52:22.431Z,4.60
2023-02-06T21:55:15.018Z,4.10
2023-02-06T21:58:07.585Z,4.50
2023-02-06T22:00:58.879Z,3.50
2023-02-06T22:03:50.834Z,4.20
2023-02-06T22:06:43.691Z,4.10
2023-02-06T22:09:35.416Z,4.50
2023-02-06T22:12:27.362Z,4.20
2023-02-06T22:15:19.609Z,4.00
2023-02-06T22:18:10.930Z,3.70
2023-02-06T22:21:07.431Z,3.80
2023-02-06T22:24:00.837Z,4.10
2023-02-06T22:26:52.331Z,3.70
2023-02-06T22:29:44.089Z,4.20
2023-02-06T22:32:38.202Z,4.20
2023-02-06T22:35:29.250Z,4.60
2023-02-06T22:38:21.156Z,4.10
2023-02-06T22:41:15.253Z,4.20
2023-02-06T22:44:06.724Z,3.90
2023-02-06T22:46:58.707Z,3.80
2023-02-06T22:49:50.956Z,4.60
2023-02-06T22:53:00.384Z,4.40
2023-02-06T22:56:10.255Z,4.50
2023-02-06T22:59:03.476Z,4.50
2023-02-06T23:01:57.585Z,4.40
2023-02-06T23:04:49.847Z,4.50
2023-02-06T23:07:41.666Z,4.40
2023-02-06T23:10:32.874Z,4.50
2023-02-06T23:13:24.569Z,6.00
2023-02-06T23:16:16.282Z,4.60
2023-02-06T23:19:07.871Z,5.60
2023-02-06T23:21:59.550Z,4.40
2023-02-06T23:24:53.450Z,6.20
2023-02-06T23:27:45.104Z,5.30
2023-02-06T23:30:36.715Z,5.60
2023-02-06T23:33:28.400Z,5.50
2023-02-06T23:36:21.482Z,5.00
2023-02-06T23:39:13.065Z,5.50
2023-02-06T23:42:05.842Z,5.40
2023-02-06T23:44:57.567Z,5.90
2023-02-06T23:47:48.742Z,5.00
2023-02-06T23:50:40.342Z,5.30
2023-02-06T23:53:32.004Z,4.60
2023-02-06T23:56:25.674Z,5.10
2023-02-06T23:59:16.693Z,5.30
